Time;durP1;ratioP1;P1;durP2;ratioP2;P2;SDS_P1;SDS_P2;PMS_P1;PMS_P2;Temp;Humidity;BMP_temperature;BMP_pressure;BME280_temperature;BME280_humidity;BME280_pressure;Samples;Min_cycle;Max_cycle;Signal;HPM_P1;HPM_P2
2024/01/22 00:01:45;;;;;;;6.90;3.67;;;;;;;-0.21;100.00;98039.28;4995334;28;20458;-77
2024/01/22 00:04:13;;;;;;;6.27;3.70;;;;;;;-0.27;100.00;98036.53;4994731;28;20480;-77
2024/01/22 00:06:40;;;;;;;4.50;3.23;;;;;;;-0.35;100.00;98032.16;4993452;28;20448;-78
2024/01/22 00:09:06;;;;;;;3.85;3.33;;;;;;;-0.41;100.00;98035.44;4994011;28;20799;-77
2024/01/22 00:11:33;;;;;;;4.63;3.33;;;;;;;-0.46;100.00;98035.94;4993855;28;20423;-77
2024/01/22 00:14:00;;;;;;;4.78;3.60;;;;;;;-0.53;100.00;98024.56;4994247;28;20406;-77
2024/01/22 00:16:26;;;;;;;5.07;3.30;;;;;;;-0.50;100.00;98026.81;4994011;28;20507;-77
2024/01/22 00:18:52;;;;;;;4.78;3.42;;;;;;;-0.54;100.00;98025.53;4993171;28;20430;-77
2024/01/22 00:21:20;;;;;;;4.80;3.37;;;;;;;-0.59;100.00;98020.00;4991298;28;20986;-77
2024/01/22 00:23:46;;;;;;;3.67;3.20;;;;;;;-0.63;100.00;98021.31;4991790;28;20474;-77
2024/01/22 00:26:14;;;;;;;5.00;3.80;;;;;;;-0.68;100.00;98010.63;4991884;28;20760;-77
2024/01/22 00:28:41;;;;;;;4.05;3.20;;;;;;;-0.74;100.00;97998.25;4991645;28;20408;-77
2024/01/22 00:31:07;;;;;;;5.20;3.80;;;;;;;-0.82;100.00;97993.06;4991509;28;20445;-77
2024/01/22 00:33:33;;;;;;;6.03;3.60;;;;;;;-0.91;100.00;97987.09;4991406;28;20899;-77
2024/01/22 00:36:00;;;;;;;5.80;3.40;;;;;;;-0.99;100.00;97983.69;4991748;28;20478;-77
2024/01/22 00:38:28;;;;;;;4.43;3.30;;;;;;;-1.07;100.00;97983.69;4991524;28;20405;-77
2024/01/22 00:40:54;;;;;;;3.85;3.20;;;;;;;-1.12;100.00;97978.16;4991610;28;20402;-77
2024/01/22 00:43:20;;;;;;;5.07;3.33;;;;;;;-1.20;100.00;97977.19;4991444;28;20807;-77
2024/01/22 00:45:46;;;;;;;4.03;3.25;;;;;;;-1.25;100.00;97973.44;4991255;28;20407;-77
2024/01/22 00:48:12;;;;;;;4.88;3.35;;;;;;;-1.29;100.00;97982.56;4994737;28;20457;-77
2024/01/22 00:50:39;;;;;;;5.00;3.80;;;;;;;-1.37;100.00;97974.75;4995270;28;20440;-77
2024/01/22 00:53:05;;;;;;;4.32;3.40;;;;;;;-1.41;100.00;97969.06;4995123;28;20811;-77
2024/01/22 00:55:32;;;;;;;6.90;3.90;;;;;;;-1.45;100.00;97959.97;4995050;28;20788;-77
2024/01/22 00:57:59;;;;;;;4.97;3.55;;;;;;;-1.48;100.00;97955.09;4995081;28;20501;-77
2024/01/22 01:00:26;;;;;;;5.50;3.40;;;;;;;-1.53;100.00;97944.41;4994892;28;20474;-77
2024/01/22 01:02:54;;;;;;;4.45;3.28;;;;;;;-1.58;100.00;97933.69;4994777;28;20416;-77
2024/01/22 01:05:20;;;;;;;7.65;3.75;;;;;;;-1.64;100.00;97923.94;4994969;28;20405;-76
2024/01/22 01:07:46;;;;;;;4.28;3.53;;;;;;;-1.62;100.00;97922.00;4994965;28;20929;-77
2024/01/22 01:10:12;;;;;;;4.70;3.80;;;;;;;-1.61;100.00;97921.03;4994814;28;20399;-76
2024/01/22 01:12:40;;;;;;;5.25;3.38;;;;;;;-1.62;100.00;97914.22;4994845;28;20446;-77
2024/01/22 01:15:07;;;;;;;4.25;3.42;;;;;;;-1.61;100.00;97918.44;4994767;28;20394;-77
2024/01/22 01:17:33;;;;;;;4.38;3.58;;;;;;;-1.61;100.00;97921.84;4994378;28;20733;-77
2024/01/22 01:19:59;;;;;;;4.72;3.50;;;;;;;-1.61;100.00;97915.84;4994930;28;21014;-76
2024/01/22 01:22:26;;;;;;;4.33;3.50;;;;;;;-1.62;100.00;97924.59;4994534;28;20993;-77
2024/01/22 01:24:52;;;;;;;5.57;3.45;;;;;;;-1.64;100.00;97926.53;4994724;28;20787;-77
2024/01/22 01:27:18;;;;;;;3.42;3.00;;;;;;;-1.68;100.00;97930.44;4994473;28;20410;-76
2024/01/22 01:29:46;;;;;;;5.15;3.50;;;;;;;-1.72;100.00;97926.50;4994221;28;20403;-76
2024/01/22 01:32:12;;;;;;;6.90;4.28;;;;;;;-1.79;100.00;97920.34;4994505;28;20460;-77
2024/01/22 01:34:38;;;;;;;4.88;3.53;;;;;;;-1.80;100.00;97929.09;4994701;28;20410;-76
2024/01/22 01:37:04;;;;;;;5.07;3.60;;;;;;;-1.83;100.00;97922.47;4994487;28;20405;-76
2024/01/22 01:39:31;;;;;;;4.72;3.85;;;;;;;-1.86;100.00;97924.53;4994164;28;20759;-77
2024/01/22 01:41:57;;;;;;;5.82;4.00;;;;;;;-1.87;100.00;97920.31;4994248;28;20422;-77
2024/01/22 01:44:47;;;;;;;5.60;3.97;;;;;;;-1.89;100.00;97914.50;4993986;28;20402;-77
2024/01/22 01:47:13;;;;;;;5.43;3.97;;;;;;;-1.90;100.00;97911.09;4994391;28;20401;-77
2024/01/22 01:49:39;;;;;;;4.63;3.83;;;;;;;-1.91;100.00;97917.25;4994421;28;20411;-77
2024/01/22 01:52:06;;;;;;;4.47;3.72;;;;;;;-1.93;100.00;97920.97;4994132;28;20402;-77
2024/01/22 01:54:32;;;;;;;4.53;3.55;;;;;;;-1.93;100.00;97920.97;4995163;28;20872;-77
2024/01/22 01:56:59;;;;;;;5.35;4.10;;;;;;;-1.95;100.00;97919.34;4994888;28;20410;-77
2024/01/22 01:59:26;;;;;;;4.28;3.75;;;;;;;-1.93;100.00;97923.56;5003542;28;20478;-76
2024/01/22 02:01:53;;;;;;;4.90;4.25;;;;;;;-1.96;100.00;97920.34;4994149;28;20418;-76
2024/01/22 02:04:19;;;;;;;4.95;4.05;;;;;;;-1.98;100.00;97914.50;4993888;28;20435;-76
2024/01/22 02:06:46;;;;;;;5.03;3.90;;;;;;;-1.98;100.00;97909.31;4993729;28;20406;-76
2024/01/22 02:09:12;;;;;;;4.03;3.45;;;;;;;-1.98;100.00;97904.09;4993787;28;20403;-76
2024/01/22 02:11:38;;;;;;;4.17;3.40;;;;;;;-1.94;100.00;97899.41;4993832;28;20411;-76
2024/01/22 02:14:04;;;;;;;5.75;3.80;;;;;;;-1.91;100.00;97898.28;4993841;28;20391;-76
2024/01/22 02:16:30;;;;;;;3.60;3.30;;;;;;;-1.88;100.00;97897.97;4993975;28;20749;-76
2024/01/22 02:18:58;;;;;;;4.47;3.40;;;;;;;-1.85;100.00;97895.03;4993592;28;20398;-76
2024/01/22 02:21:24;;;;;;;4.73;3.40;;;;;;;-1.83;100.00;97898.28;4993449;28;20583;-76
2024/01/22 02:23:51;;;;;;;5.63;3.90;;;;;;;-1.83;100.00;97904.28;4993356;28;20488;-76
2024/01/22 02:26:17;;;;;;;5.25;3.45;;;;;;;-1.84;100.00;97901.84;4993114;28;21044;-77
2024/01/22 02:28:44;;;;;;;5.15;3.92;;;;;;;-1.86;100.00;97906.38;4993399;28;20453;-77
2024/01/22 02:31:10;;;;;;;4.45;3.83;;;;;;;-1.86;100.00;97909.78;4993296;28;20409;-77
2024/01/22 02:33:36;;;;;;;6.70;4.93;;;;;;;-1.88;100.00;97908.34;4993511;28;20401;-77
2024/01/22 02:36:02;;;;;;;7.07;4.70;;;;;;;-1.84;100.00;97897.47;4993177;28;20402;-77
2024/01/22 02:38:28;;;;;;;6.22;4.13;;;;;;;-1.80;100.00;97896.16;4993063;28;20509;-77
2024/01/22 02:40:56;;;;;;;5.87;4.10;;;;;;;-1.75;100.00;97893.13;4992915;28;20417;-76
2024/01/22 02:43:22;;;;;;;4.70;3.90;;;;;;;-1.75;100.00;97886.16;4993129;28;20418;-77
2024/01/22 02:45:49;;;;;;;4.25;3.60;;;;;;;-1.77;100.00;97892.47;4992951;28;20831;-77
2024/01/22 02:48:15;;;;;;;4.83;3.80;;;;;;;-1.80;100.00;97895.34;4992985;28;20481;-77
2024/01/22 02:50:41;;;;;;;4.10;3.70;;;;;;;-1.84;100.00;97887.09;4993165;28;20402;-77
2024/01/22 02:53:07;;;;;;;5.28;4.15;;;;;;;-1.87;100.00;97873.63;4993699;28;20950;-77
2024/01/22 02:55:33;;;;;;;4.75;4.10;;;;;;;-1.86;100.00;97880.44;4992536;28;20775;-77
2024/01/22 02:58:01;;;;;;;6.72;4.32;;;;;;;-1.84;100.00;97876.72;4992969;28;20985;-77
2024/01/22 03:00:27;;;;;;;5.90;4.15;;;;;;;-1.84;100.00;97874.13;4992788;28;20913;-77
2024/01/22 03:02:53;;;;;;;6.57;4.38;;;;;;;-1.82;100.00;97872.19;4992677;28;20433;-77
2024/01/22 03:05:19;;;;;;;7.47;4.30;;;;;;;-1.79;100.00;97871.03;4992655;28;20446;-77
2024/01/22 03:07:45;;;;;;;5.90;4.10;;;;;;;-1.76;100.00;97860.34;4992421;28;20506;-77
2024/01/22 03:10:12;;;;;;;4.53;4.00;;;;;;;-1.75;100.00;97861.97;4992499;28;20486;-77
2024/01/22 03:12:38;;;;;;;5.50;4.07;;;;;;;-1.76;100.00;97863.75;4992604;28;20410;-77
2024/01/22 03:15:06;;;;;;;5.95;4.10;;;;;;;-1.76;100.00;97860.34;4992304;28;20406;-77
2024/01/22 03:17:32;;;;;;;4.53;3.95;;;;;;;-1.76;100.00;97855.97;4992384;28;20421;-77
2024/01/22 03:19:58;;;;;;;6.68;4.22;;;;;;;-1.76;100.00;97858.56;4992138;28;20402;-76
2024/01/22 03:22:24;;;;;;;5.88;4.28;;;;;;;-1.72;100.00;97854.66;4992279;28;21010;-77
2024/01/22 03:24:50;;;;;;;5.40;4.15;;;;;;;-1.69;100.00;97851.75;4992137;28;20745;-77
2024/01/22 03:27:17;;;;;;;4.88;3.60;;;;;;;-1.62;100.00;97846.72;4992489;28;20437;-77
2024/01/22 03:29:43;;;;;;;4.47;3.80;;;;;;;-1.57;100.00;97847.03;4992114;28;20441;-77
2024/01/22 03:32:10;;;;;;;4.28;3.70;;;;;;;-1.52;100.00;97836.19;4992268;28;20406;-77
2024/01/22 03:34:36;;;;;;;4.20;3.80;;;;;;;-1.51;100.00;97827.41;4992291;28;20402;-76
2024/01/22 03:37:03;;;;;;;5.47;3.97;;;;;;;-1.46;100.00;97819.94;4991832;28;20842;-76
2024/01/22 03:39:29;;;;;;;4.88;4.15;;;;;;;-1.43;100.00;97823.03;4991903;28;20398;-77
2024/01/22 03:41:55;;;;;;;4.00;3.60;;;;;;;-1.39;100.00;97826.09;4991925;28;20764;-77
2024/01/22 03:44:21;;;;;;;4.73;4.10;;;;;;;-1.40;100.00;97817.50;4991957;28;20404;-77
2024/01/22 03:46:47;;;;;;;4.88;3.80;;;;;;;-1.38;100.00;97827.72;4992032;28;20395;-77
2024/01/22 03:49:15;;;;;;;5.68;3.88;;;;;;;-1.35;100.00;97817.81;4991782;28;20803;-77
2024/01/22 03:51:41;;;;;;;4.65;3.50;;;;;;;-1.32;100.00;97816.66;4991666;28;20962;-77
2024/01/22 03:54:07;;;;;;;4.20;3.78;;;;;;;-1.27;100.00;97807.41;4991789;28;20403;-77
2024/01/22 03:56:33;;;;;;;6.07;3.70;;;;;;;-1.22;100.00;97806.91;4991996;28;20406;-76
2024/01/22 03:58:59;;;;;;;5.60;3.75;;;;;;;-1.18;100.00;97803.00;4991748;28;20413;-77
2024/01/22 04:01:25;;;;;;;4.53;3.40;;;;;;;-1.12;100.00;97809.31;4991644;28;20398;-77
2024/01/22 04:03:52;;;;;;;5.57;3.92;;;;;;;-1.09;100.00;97807.19;4991623;28;20418;-77
2024/01/22 04:06:19;;;;;;;4.32;3.92;;;;;;;-1.05;100.00;97802.50;4991863;28;20413;-77
2024/01/22 04:08:45;;;;;;;5.38;3.70;;;;;;;-1.03;100.00;97792.72;4991892;28;20430;-77
2024/01/22 04:11:12;;;;;;;4.65;3.78;;;;;;;-1.01;100.00;97793.38;4991944;28;20410;-77
2024/01/22 04:13:40;;;;;;;6.10;3.75;;;;;;;-0.99;100.00;97794.03;4991679;28;20514;-77
2024/01/22 04:16:06;;;;;;;4.20;3.78;;;;;;;-0.97;100.00;97799.84;4991618;28;20456;-76
2024/01/22 04:18:32;;;;;;;4.63;3.80;;;;;;;-0.97;100.00;97792.84;4991597;28;20749;-77
2024/01/22 04:20:58;;;;;;;3.87;3.33;;;;;;;-0.94;100.00;97791.72;4991483;28;20784;-77
2024/01/22 04:23:27;;;;;;;4.10;3.30;;;;;;;-0.93;100.00;97775.97;4995003;28;20509;-76
2024/01/22 04:25:53;;;;;;;4.40;3.47;;;;;;;-0.90;100.00;97775.59;4995582;28;20843;-77
2024/01/22 04:28:19;;;;;;;3.70;3.40;;;;;;;-0.90;100.00;97778.22;4995454;28;20942;-76
2024/01/22 04:30:45;;;;;;;4.47;3.60;;;;;;;-0.90;100.00;97764.41;4995428;28;20437;-77
2024/01/22 04:33:11;;;;;;;3.97;3.15;;;;;;;-0.88;100.00;97767.66;4995381;28;20402;-77
2024/01/22 04:35:37;;;;;;;6.40;3.80;;;;;;;-0.87;100.00;97761.47;4995572;28;20406;-77
2024/01/22 04:38:04;;;;;;;5.45;3.80;;;;;;;-0.88;100.00;97759.84;4995401;28;20494;-76
2024/01/22 04:40:31;;;;;;;5.28;3.85;;;;;;;-0.88;100.00;97765.06;4995186;28;20402;-76
2024/01/22 04:42:57;;;;;;;5.72;4.22;;;;;;;-0.88;100.00;97770.25;4995125;28;20472;-77
2024/01/22 04:45:23;;;;;;;7.63;4.50;;;;;;;-0.91;100.00;97758.44;4995257;28;20492;-77
2024/01/22 04:47:49;;;;;;;5.10;4.20;;;;;;;-0.86;100.00;97766.50;4995635;28;20433;-77
2024/01/22 04:50:16;;;;;;;4.53;3.90;;;;;;;-0.80;100.00;97749.44;4995396;28;20403;-77
2024/01/22 04:52:42;;;;;;;4.15;3.75;;;;;;;-0.75;100.00;97743.75;4995295;28;20414;-76
2024/01/22 04:55:08;;;;;;;3.70;3.40;;;;;;;-0.70;100.00;97733.63;5006745;28;20405;-76
2024/01/22 04:57:36;;;;;;;3.90;3.50;;;;;;;-0.66;100.00;97740.09;5014604;28;20400;-76
2024/01/22 05:00:03;;;;;;;4.10;3.70;;;;;;;-0.62;100.00;97750.00;5014821;28;20865;-77
2024/01/22 05:02:29;;;;;;;3.55;3.08;;;;;;;-0.58;100.00;97740.84;5014589;28;20868;-77
2024/01/22 05:04:57;;;;;;;4.63;3.58;;;;;;;-0.56;100.00;97743.28;4997777;28;20489;-77
2024/01/22 05:07:23;;;;;;;4.78;3.40;;;;;;;-0.54;100.00;97749.13;4994885;28;20457;-77
2024/01/22 05:09:51;;;;;;;3.60;3.05;;;;;;;-0.53;100.00;97729.97;4994442;28;20403;-77
2024/01/22 05:12:17;;;;;;;4.50;3.60;;;;;;;-0.50;100.00;97740.00;4994569;28;20465;-77
2024/01/22 05:14:44;;;;;;;3.88;3.47;;;;;;;-0.43;100.00;97728.72;4994645;28;20460;-77
2024/01/22 05:17:11;;;;;;;3.92;3.28;;;;;;;-0.40;100.00;97730.19;4988452;28;20459;-77
2024/01/22 05:19:37;;;;;;;4.00;3.50;;;;;;;-0.35;100.00;97724.44;4989375;28;20411;-77
2024/01/22 05:22:03;;;;;;;3.25;2.95;;;;;;;-0.32;100.00;97726.72;4983538;28;20404;-76
2024/01/22 05:24:29;;;;;;;3.40;2.90;;;;;;;-0.30;100.00;97725.53;4982977;28;20593;-77
2024/01/22 05:26:55;;;;;;;3.40;3.10;;;;;;;-0.27;100.00;97724.41;4985086;28;20413;-76
2024/01/22 05:29:21;;;;;;;3.20;2.90;;;;;;;-0.27;100.00;97722.59;4977247;28;20475;-78
2024/01/22 05:31:50;;;;;;;4.60;3.25;;;;;;;-0.25;100.00;97731.06;4995862;28;20484;-79
2024/01/22 05:34:16;;;;;;;3.97;3.50;;;;;;;-0.22;100.00;97737.69;4996530;28;20417;-77
2024/01/22 05:36:43;;;;;;;3.17;2.95;;;;;;;-0.19;100.00;97732.13;4997480;28;20403;-79
2024/01/22 05:39:09;;;;;;;4.03;3.08;;;;;;;-0.16;100.00;97724.00;4998405;28;20434;-77
2024/01/22 05:41:36;;;;;;;4.00;2.92;;;;;;;-0.14;100.00;97722.81;4992882;28;20409;-77
2024/01/22 05:44:02;;;;;;;5.18;3.40;;;;;;;-0.10;100.00;97721.50;4985789;28;20430;-77
2024/01/22 05:46:28;;;;;;;6.60;4.53;;;;;;;0.03;100.00;97713.09;4987361;28;20491;-77
2024/01/22 05:48:55;;;;;;;6.00;4.60;;;;;;;0.18;100.00;97700.09;4987319;28;20556;-79
2024/01/22 05:51:22;;;;;;;5.93;4.40;;;;;;;0.35;100.00;97686.75;4993874;28;20441;-77
2024/01/22 05:53:48;;;;;;;6.90;4.57;;;;;;;0.54;100.00;97674.16;4992123;28;20489;-78
2024/01/22 05:56:20;;;;;;;6.20;4.88;;;;;;;0.74;100.00;97680.44;4994440;28;20410;-78
2024/01/22 05:58:46;;;;;;;6.75;4.38;;;;;;;0.98;100.00;97676.69;4993796;28;20522;-76
2024/01/22 06:01:19;;;;;;;4.93;4.15;;;;;;;1.21;100.00;97668.72;4993609;28;20476;-77
2024/01/22 06:03:45;;;;;;;4.35;3.95;;;;;;;1.37;100.00;97678.94;4993298;28;21019;-78
2024/01/22 06:06:13;;;;;;;6.03;4.25;;;;;;;1.45;100.00;97677.00;4997028;28;20398;-77
2024/01/22 06:08:40;;;;;;;4.82;3.63;;;;;;;1.59;100.00;97675.34;4996086;28;20744;-77
2024/01/22 06:11:07;;;;;;;3.95;3.60;;;;;;;1.64;100.00;97659.94;4993991;28;20469;-77
2024/01/22 06:13:39;;;;;;;4.30;3.87;;;;;;;1.59;100.00;97656.25;4998966;28;20415;-79
2024/01/22 06:16:07;;;;;;;8.05;4.50;;;;;;;1.62;100.00;97661.13;4995412;28;20516;-78
2024/01/22 06:18:33;;;;;;;5.97;3.70;;;;;;;1.69;100.00;97646.31;4995461;28;20837;-77
2024/01/22 06:20:59;;;;;;;5.13;3.70;;;;;;;1.79;100.00;97642.41;4996061;28;20410;-77
2024/01/22 06:23:27;;;;;;;5.22;3.53;;;;;;;1.76;100.00;97642.78;4997320;28;20753;-78
2024/01/22 06:25:53;;;;;;;5.25;3.50;;;;;;;1.68;100.00;97644.69;4996695;28;20780;-78
2024/01/22 06:28:19;;;;;;;3.80;3.10;;;;;;;1.63;100.00;97637.44;4996040;28;20453;-78
2024/01/22 06:30:45;;;;;;;3.60;2.90;;;;;;;1.57;100.00;97640.00;4995911;28;20846;-76
2024/01/22 06:33:11;;;;;;;3.50;3.20;;;;;;;1.49;100.00;97649.59;4995356;28;20418;-77
2024/01/22 06:35:37;;;;;;;3.70;2.90;;;;;;;1.39;100.00;97637.84;4997178;28;20410;-78
2024/01/22 06:38:05;;;;;;;3.47;3.00;;;;;;;1.31;100.00;97640.56;4994002;28;20449;-76
2024/01/22 06:40:33;;;;;;;4.53;3.40;;;;;;;1.19;100.00;97639.44;4993353;28;20862;-76
2024/01/22 06:42:59;;;;;;;5.32;3.30;;;;;;;1.10;100.00;97639.56;4992808;28;20453;-75
2024/01/22 06:45:26;;;;;;;4.55;3.35;;;;;;;1.05;100.00;97648.94;4992414;28;20399;-77
2024/01/22 06:47:52;;;;;;;3.73;3.30;;;;;;;1.06;100.00;97651.34;4994898;28;20489;-77
2024/01/22 06:50:18;;;;;;;5.32;3.95;;;;;;;1.13;100.00;97627.94;4993356;28;20895;-77
2024/01/22 06:52:46;;;;;;;9.52;3.80;;;;;;;1.20;100.00;97631.44;4993955;28;20453;-77
2024/01/22 06:55:12;;;;;;;6.03;3.45;;;;;;;1.33;100.00;97623.75;4993725;28;20879;-77
2024/01/22 06:57:40;;;;;;;4.22;3.50;;;;;;;1.42;100.00;97633.06;4985053;28;20408;-77
2024/01/22 07:00:07;;;;;;;5.68;3.67;;;;;;;1.44;100.00;97631.06;4977669;28;20844;-78
2024/01/22 07:02:33;;;;;;;3.85;3.40;;;;;;;1.58;100.00;97631.19;4996131;28;20418;-78
2024/01/22 07:05:00;;;;;;;6.82;3.58;;;;;;;1.59;100.00;97619.72;4994439;28;20403;-77
2024/01/22 07:07:26;;;;;;;4.72;3.17;;;;;;;1.63;100.00;97611.38;4993701;28;20406;-78
2024/01/22 07:09:52;;;;;;;3.63;3.00;;;;;;;1.64;100.00;97610.38;4995118;28;20468;-77
2024/01/22 07:12:19;;;;;;;3.83;3.03;;;;;;;1.62;100.00;97617.56;4994689;28;20418;-77
2024/01/22 07:14:47;;;;;;;4.83;3.10;;;;;;;1.60;100.00;97619.56;4993725;28;20410;-77
2024/01/22 07:17:15;;;;;;;6.88;3.58;;;;;;;1.71;100.00;97623.47;4996938;28;20821;-78
2024/01/22 07:19:41;;;;;;;3.72;3.00;;;;;;;1.83;100.00;97627.16;4996612;28;20394;-78
2024/01/22 07:22:08;;;;;;;3.10;2.53;;;;;;;1.87;100.00;97628.41;4996964;28;20413;-79
2024/01/22 07:24:34;;;;;;;3.00;2.70;;;;;;;1.85;100.00;97639.03;4997679;28;20771;-78
2024/01/22 07:27:00;;;;;;;4.70;2.83;;;;;;;1.85;100.00;97646.88;5004654;28;20407;-78
2024/01/22 07:29:26;;;;;;;5.22;3.17;;;;;;;1.95;100.00;97630.88;5008261;28;20406;-79
2024/01/22 07:31:53;;;;;;;6.50;2.90;;;;;;;2.04;100.00;97613.25;5008818;28;20412;-78
2024/01/22 07:34:20;;;;;;;3.20;2.85;;;;;;;2.13;100.00;97607.69;5003604;28;20456;-78
2024/01/22 07:36:46;;;;;;;3.63;2.70;;;;;;;2.31;100.00;97599.34;4996626;28;20403;-78
2024/01/22 07:39:12;;;;;;;3.10;2.58;;;;;;;2.36;100.00;97591.75;4996532;28;20494;-78
2024/01/22 07:41:38;;;;;;;4.03;2.60;;;;;;;2.37;100.00;97589.94;4996509;28;20410;-78
2024/01/22 07:44:05;;;;;;;4.10;2.92;;;;;;;2.34;100.00;97585.88;4996451;28;20454;-78
2024/01/22 07:46:31;;;;;;;3.35;2.53;;;;;;;2.36;100.00;97578.69;4995345;28;20406;-78
2024/01/22 07:48:59;;;;;;;4.55;2.75;;;;;;;2.32;100.00;97567.81;4997171;28;20410;-79
2024/01/22 07:51:26;;;;;;;8.05;2.75;;;;;;;2.38;100.00;97562.81;4993350;28;20891;-78
2024/01/22 07:53:52;;;;;;;4.75;2.83;;;;;;;2.47;100.00;97551.19;4989678;28;20402;-79
2024/01/22 07:56:18;;;;;;;2.40;2.20;;;;;;;2.55;100.00;97538.78;4986262;28;20431;-79
2024/01/22 07:58:44;;;;;;;2.58;2.28;;;;;;;2.55;100.00;97533.56;4994001;28;20410;-78
2024/01/22 08:01:10;;;;;;;2.90;2.40;;;;;;;2.47;100.00;97530.31;4994528;28;20402;-78
2024/01/22 08:03:38;;;;;;;2.58;2.10;;;;;;;2.46;100.00;97526.06;4994762;28;20617;-80
2024/01/22 08:06:06;;;;;;;3.50;2.60;;;;;;;2.44;100.00;97530.69;4997118;28;20407;-80
2024/01/22 08:08:32;;;;;;;3.70;2.35;;;;;;;2.45;100.00;97527.06;4989906;28;20410;-79
2024/01/22 08:10:58;;;;;;;2.85;2.10;;;;;;;2.40;100.00;97532.91;4996432;28;20406;-79
2024/01/22 08:13:24;;;;;;;2.80;2.10;;;;;;;2.42;100.00;97527.44;4996062;28;20429;-79
2024/01/22 08:15:51;;;;;;;2.20;2.00;;;;;;;2.46;100.00;97523.47;4994810;28;20406;-80
2024/01/22 08:18:17;;;;;;;4.55;2.30;;;;;;;2.53;100.00;97521.69;4991050;28;20535;-80
2024/01/22 08:20:43;;;;;;;2.15;1.75;;;;;;;2.59;100.00;97513.84;5003421;28;20428;-79
2024/01/22 08:23:11;;;;;;;1.95;1.85;;;;;;;2.62;100.00;97520.50;5007252;28;20422;-80
2024/01/22 08:25:37;;;;;;;3.30;1.90;;;;;;;2.62;100.00;97505.63;5000887;28;20484;-81
2024/01/22 08:28:04;;;;;;;3.58;2.28;;;;;;;2.91;100.00;97528.00;4998915;28;20844;-81
2024/01/22 08:30:31;;;;;;;2.92;1.90;;;;;;;3.06;100.00;97526.00;4999360;28;20406;-81
2024/01/22 08:32:59;;;;;;;2.10;1.90;;;;;;;3.13;100.00;97522.59;4989493;28;21299;-80
2024/01/22 08:35:25;;;;;;;1.80;1.60;;;;;;;3.11;100.00;97520.16;4993564;28;20401;-80
2024/01/22 08:37:52;;;;;;;3.00;2.13;;;;;;;3.11;100.00;97528.00;4989205;28;20405;-78
2024/01/22 08:40:24;;;;;;;2.03;1.75;;;;;;;3.26;100.00;97523.38;4988740;28;20421;-78
2024/01/22 08:42:51;;;;;;;2.55;2.00;;;;;;;3.54;100.00;97514.50;4996887;28;20930;-80
2024/01/22 08:45:17;;;;;;;2.13;1.50;;;;;;;3.73;100.00;97513.69;4987809;28;20419;-80
2024/01/22 08:47:46;;;;;;;1.57;1.47;;;;;;;3.88;100.00;97511.66;4979101;28;20463;-79
2024/01/22 08:50:17;;;;;;;1.90;1.52;;;;;;;4.10;100.00;97492.03;4983147;28;20406;-80
2024/01/22 08:52:45;;;;;;;1.83;1.50;;;;;;;4.26;100.00;97496.81;4986070;28;20415;-80
2024/01/22 08:55:11;;;;;;;3.50;1.63;;;;;;;4.45;100.00;97481.19;4998327;28;20411;-80
2024/01/22 08:57:39;;;;;;;2.15;1.40;;;;;;;4.64;100.00;97488.16;4990798;28;20399;-80
2024/01/22 09:00:10;;;;;;;2.00;1.35;;;;;;;4.73;100.00;97493.97;4983754;28;20761;-80
2024/01/22 09:02:37;;;;;;;3.20;1.50;;;;;;;4.94;100.00;97491.00;4996677;28;20497;-81
2024/01/22 09:05:03;;;;;;;2.03;1.30;;;;;;;5.00;100.00;97498.81;4997871;28;20426;-80
2024/01/22 09:07:29;;;;;;;1.90;1.20;;;;;;;5.18;100.00;97492.84;4998090;28;20403;-81
2024/01/22 09:09:56;;;;;;;2.15;1.50;;;;;;;5.31;100.00;97505.06;5001954;28;20528;-80
2024/01/22 09:12:23;;;;;;;2.65;1.40;;;;;;;5.43;100.00;97495.44;5000367;28;20445;-81
2024/01/22 09:14:50;;;;;;;2.17;1.27;;;;;;;5.50;100.00;97495.38;5002599;28;20776;-80
2024/01/22 09:17:17;;;;;;;1.50;1.25;;;;;;;5.69;100.00;97481.28;5003695;28;20417;-81
2024/01/22 09:19:43;;;;;;;2.33;1.30;;;;;;;5.88;100.00;97490.81;5017256;28;20401;-80
2024/01/22 09:22:09;;;;;;;1.40;1.30;;;;;;;6.10;100.00;97494.59;5021674;28;20409;-79
2024/01/22 09:24:35;;;;;;;2.65;1.52;;;;;;;6.17;100.00;97486.63;5008570;28;20430;-78
2024/01/22 09:27:01;;;;;;;1.25;1.15;;;;;;;6.44;100.00;97476.63;5000261;28;20968;-81
2024/01/22 09:29:28;;;;;;;3.17;1.40;;;;;;;6.41;100.00;97461.28;5001654;28;20413;-81
2024/01/22 09:31:55;;;;;;;1.30;1.20;;;;;;;6.61;100.00;97481.00;5001601;28;20399;-80
2024/01/22 09:34:21;;;;;;;1.40;1.20;;;;;;;6.72;100.00;97471.56;4999310;28;20407;-78
2024/01/22 09:36:47;;;;;;;2.40;1.20;;;;;;;6.75;100.00;97501.91;4999151;28;20402;-80
2024/01/22 09:39:13;;;;;;;1.70;1.10;;;;;;;6.83;100.00;97520.81;4999365;28;20403;-81
2024/01/22 09:41:40;;;;;;;1.25;1.10;;;;;;;6.79;100.00;97498.59;4998044;28;20915;-81
2024/01/22 09:44:07;;;;;;;1.60;1.30;;;;;;;6.84;100.00;97477.66;4999582;28;20765;-81
2024/01/22 09:46:35;;;;;;;1.38;1.27;;;;;;;6.79;100.00;97493.31;5000504;28;20407;-79
2024/01/22 09:49:04;;;;;;;1.90;1.50;;;;;;;6.73;100.00;97485.53;5000844;28;20460;-80
2024/01/22 09:51:33;;;;;;;1.30;1.20;;;;;;;6.64;100.00;97484.22;5000150;28;20409;-81
2024/01/22 09:54:06;;;;;;;1.50;1.30;;;;;;;6.59;100.00;97482.28;5001031;28;20433;-81
2024/01/22 09:56:34;;;;;;;2.30;1.40;;;;;;;6.60;100.00;97484.69;5000806;28;20395;-82
2024/01/22 09:59:09;;;;;;;6.20;1.13;;;;;;;6.67;100.00;97494.31;5002812;28;20398;-79
2024/01/22 10:01:35;;;;;;;5.13;1.50;;;;;;;6.68;100.00;97488.03;5004086;28;20441;-81
2024/01/22 10:04:04;;;;;;;1.63;1.00;;;;;;;6.82;100.00;97479.72;5004281;28;20927;-81
2024/01/22 10:06:33;;;;;;;1.38;1.10;;;;;;;6.86;100.00;97475.59;5003879;28;20414;-81
2024/01/22 10:09:00;;;;;;;1.20;1.10;;;;;;;6.91;100.00;97464.44;5014600;28;20422;-81
2024/01/22 10:11:26;;;;;;;1.40;1.10;;;;;;;6.96;100.00;97467.97;5000591;28;20407;-81
2024/01/22 10:13:53;;;;;;;1.77;1.43;;;;;;;6.96;100.00;97461.91;4996349;28;20449;-81
2024/01/22 10:16:19;;;;;;;1.40;1.10;;;;;;;7.00;100.00;97450.69;5001826;28;20418;-81
2024/01/22 10:18:56;;;;;;;1.38;1.20;;;;;;;7.05;100.00;97450.03;4999600;28;20394;-81
2024/01/22 10:21:23;;;;;;;1.10;1.00;;;;;;;7.00;100.00;97440.16;4998819;28;20410;-81
2024/01/22 10:23:56;;;;;;;2.05;1.20;;;;;;;6.98;100.00;97423.81;5001147;28;20420;-81
2024/01/22 10:26:22;;;;;;;1.80;1.00;;;;;;;7.04;100.00;97421.31;5000056;28;20453;-81
2024/01/22 10:28:48;;;;;;;0.93;0.90;;;;;;;7.16;100.00;97437.91;4999294;28;20414;-81
2024/01/22 10:31:14;;;;;;;1.00;1.00;;;;;;;7.16;100.00;97433.44;4998793;28;20398;-83
2024/01/22 10:33:41;;;;;;;1.45;1.20;;;;;;;7.43;100.00;97431.16;4999286;28;20490;-81
2024/01/22 10:36:15;;;;;;;1.10;1.00;;;;;;;7.49;100.00;97417.06;5000320;28;20402;-79
2024/01/22 10:38:44;;;;;;;2.40;1.40;;;;;;;7.57;100.00;97392.22;5001516;28;20418;-81
2024/01/22 10:41:17;;;;;;;1.58;1.40;;;;;;;7.55;100.00;97399.53;4998694;28;20409;-81
2024/01/22 10:43:44;;;;;;;0.90;0.90;;;;;;;7.73;100.00;97394.16;4998256;28;20505;-81
2024/01/22 10:46:11;;;;;;;1.10;1.02;;;;;;;7.85;100.00;97408.09;4995472;28;20407;-82
2024/01/22 10:48:38;;;;;;;2.22;1.10;;;;;;;8.05;100.00;97405.84;4999206;28;20410;-81
2024/01/22 10:51:05;;;;;;;1.20;1.10;;;;;;;8.19;100.00;97393.22;4985646;28;20482;-81
2024/01/22 10:53:32;;;;;;;1.48;1.10;;;;;;;8.14;100.00;97386.00;5000539;28;20816;-82
2024/01/22 10:56:01;;;;;;;1.43;1.03;;;;;;;8.19;100.00;97380.03;4999366;28;20588;-81
2024/01/22 10:58:32;;;;;;;1.60;0.90;;;;;;;8.15;100.00;97387.59;4999047;28;20466;-81
2024/01/22 11:01:07;;;;;;;2.00;1.10;;;;;;;8.09;100.00;97370.09;4998961;28;20406;-80
2024/01/22 11:03:39;;;;;;;0.90;0.90;;;;;;;8.08;100.00;97373.75;4999123;28;20429;-81
2024/01/22 11:06:07;;;;;;;1.30;1.00;;;;;;;8.19;100.00;97372.13;4997032;28;20457;-78
2024/01/22 11:08:35;;;;;;;1.42;1.17;;;;;;;8.28;100.00;97386.50;4980569;28;20893;-78
2024/01/22 11:11:04;;;;;;;0.90;0.90;;;;;;;8.48;100.00;97357.09;4979322;28;20400;-80
2024/01/22 11:13:30;;;;;;;1.17;0.90;;;;;;;8.66;100.00;97359.50;4980832;28;20408;-82
2024/01/22 11:15:57;;;;;;;0.80;0.80;;;;;;;9.06;100.00;97358.53;4979599;28;20400;-82
2024/01/22 11:18:23;;;;;;;1.20;0.90;;;;;;;9.18;100.00;97352.13;4997778;28;20453;-82
2024/01/22 11:20:56;;;;;;;1.15;0.90;;;;;;;9.19;100.00;97339.72;4998481;28;20871;-81
2024/01/22 11:23:22;;;;;;;1.85;1.10;;;;;;;9.03;100.00;97359.00;4998701;28;20465;-81
2024/01/22 11:25:59;;;;;;;0.90;0.90;;;;;;;9.03;100.00;97338.69;4997837;28;20423;-81
2024/01/22 11:28:27;;;;;;;1.27;1.00;;;;;;;8.91;100.00;97345.91;4997820;28;20411;-80